Stacja Pogody
Warszawa Praga-Północ

Szerokość 52°15'43"N Długość 21°01'22"E Wysokość 110m n.p.m.


262 dzień roku.   Do końca pozostalo 103 dni.   Od wczoraj ubyło 4 min. i 0 sek. dnia.
Wschód Słońca 06:16 Górowanie Słońca 12:29 Zachód Słońca 18:43 panna
Data juliańska 2458381.284 Odległość Słońca 150203841 km Średn. kątowa Słońca 0,319°
Wschód Księżyca 16:25 Zachód Księżyca 00:00 Wiek Księżyca 10 dni Moon
Widoczność Księżyca 74,44% Odległość Księżyca 405327 km Średn. kątowa Księżyca 0,295°
Dzień krótszy od najdłuższego o: 04:20 Długość dnia 12:27 Imieniny Januarego, Konstancji, Teodora



  Aktualizacja: 19-09-2018 18:48:09
TEMPERATURA
Aktualnie: 26.1°C ↓↓
Temperatura odczuwalna:28.2°C
Punkt rosy11.8°C
WIATR
Średnia prędkość: 3.6km/h ↑
Prędkość w podmuchach:5.0km/h
Przepływ w ciągu doby:114.6km
Kierunek wiatru:90°
CIŚNIENIE
Względne:1019.1hPa
Trend ciśnienia:powolny wzrost
WILGOTNOŚĆ
Wilgotność względna: 41% ↑
Podstawa chmur4839m
DESZCZ
W ostatniej godzinie: 0.0mm
Dzisiaj:0.0mm
W tym miesiącu:6.6mm
METAR
EPWA 191630Z 20002KT CAVOK 24/14 Q1018 NOSIG
Ostrzeżenia burzowe
Prognoza 12-to godzinna (prawdopodobieństwo 75%):   Dobra pogoda prognoza





a  a